Ruskington, United Kingdom
Current Conditions -  °F | °C
As of 1:50 PM on Thursday 30 Oct 2014 (Local Time) from EGYD Reporting Station
Broken Clouds Broken Clouds  
Wind Chill: 64°   Ceiling: 3600
Heat Index: 64°   Visibility: 6mi
Dew Point: 57°   Wind: 13mph
Humidity: 77%   Direction: 200°SSW
Pressure: 30"   Gusts: NA
Location:  53.05°N, 0.39°W
Report Text: EGYD 301350Z 20011KT 9999 FEW015 BKN036 18/14 Q1016 BLU TEMPO SCT015 WHT
Loading
Personal Weather Stations






























Interactive Weather Map
Tropical Storm Tracking
New forecast layout! Learn more

10-Day Weather Forecast

Advertisements
Track Severe Weather on mobile